createdAt,value
2022-09-16T00:00:32.245Z,13.04
2022-09-16T00:02:59.000Z,13.03
2022-09-16T00:05:26.215Z,13.02
2022-09-16T00:07:53.817Z,13.02
2022-09-16T00:10:21.585Z,13.01
2022-09-16T00:12:49.149Z,12.98
2022-09-16T00:15:16.420Z,12.98
2022-09-16T00:17:43.112Z,12.95
2022-09-16T00:20:11.084Z,12.96
2022-09-16T00:22:37.726Z,12.97
2022-09-16T00:25:04.630Z,12.96
2022-09-16T00:27:31.300Z,12.91
2022-09-16T00:29:57.933Z,12.91
2022-09-16T00:32:25.129Z,12.90
2022-09-16T00:34:52.476Z,12.87
2022-09-16T00:37:19.349Z,12.84
2022-09-16T00:39:49.409Z,12.76
2022-09-16T00:42:18.128Z,12.73
2022-09-16T00:45:24.789Z,12.71
2022-09-16T00:47:59.232Z,12.73
2022-09-16T00:50:38.482Z,12.69
2022-09-16T00:53:09.088Z,12.66
2022-09-16T00:55:37.688Z,12.62
2022-09-16T00:58:35.338Z,12.54
2022-09-16T01:01:05.787Z,12.47
2022-09-16T01:03:43.203Z,12.38
2022-09-16T01:06:13.448Z,12.31
2022-09-16T01:08:42.867Z,12.28
2022-09-16T01:11:09.559Z,12.21
2022-09-16T01:13:37.567Z,12.20
2022-09-16T01:16:12.464Z,12.14
2022-09-16T01:19:07.745Z,12.09
2022-09-16T01:21:34.310Z,12.07
2022-09-16T01:24:07.759Z,12.04
2022-09-16T01:26:50.316Z,12.02
2022-09-16T01:29:55.661Z,11.95
2022-09-16T01:32:49.217Z,11.91
2022-09-16T01:35:57.892Z,11.86
2022-09-16T01:38:55.573Z,11.82
2022-09-16T01:41:31.707Z,11.81
2022-09-16T01:44:06.340Z,11.79
2022-09-16T01:46:32.898Z,11.78
2022-09-16T01:49:16.183Z,11.75
2022-09-16T01:52:01.712Z,11.70
2022-09-16T01:54:41.383Z,11.66
2022-09-16T01:57:14.924Z,11.62
2022-09-16T01:59:46.364Z,11.57
2022-09-16T02:02:22.066Z,11.55
2022-09-16T02:04:54.557Z,11.55
2022-09-16T02:07:27.928Z,11.50
2022-09-16T02:09:58.140Z,11.48
2022-09-16T02:12:30.795Z,11.47
2022-09-16T02:15:03.944Z,11.43
2022-09-16T02:17:33.275Z,11.39
2022-09-16T02:20:13.218Z,11.38
2022-09-16T02:23:11.008Z,11.34
2022-09-16T02:25:40.310Z,11.30
2022-09-16T02:28:13.243Z,11.26
2022-09-16T02:30:49.779Z,11.22
2022-09-16T02:33:17.882Z,11.19
2022-09-16T02:35:48.560Z,11.18
2022-09-16T02:38:21.465Z,11.13
2022-09-16T02:40:55.479Z,11.11
2022-09-16T02:43:23.024Z,11.10
2022-09-16T02:46:06.362Z,11.06
2022-09-16T02:48:57.472Z,11.00
2022-09-16T02:51:51.513Z,10.98
2022-09-16T02:54:33.713Z,10.96
2022-09-16T02:57:00.389Z,10.93
2022-09-16T02:59:27.121Z,10.88
2022-09-16T03:01:53.810Z,10.89
2022-09-16T03:04:20.772Z,10.89
2022-09-16T03:06:48.128Z,10.87
2022-09-16T03:09:18.183Z,10.87
2022-09-16T03:12:09.804Z,10.82
2022-09-16T03:14:53.104Z,10.79
2022-09-16T03:17:35.472Z,10.76
2022-09-16T03:20:20.898Z,10.74
2022-09-16T03:23:28.776Z,10.69
2022-09-16T03:26:01.046Z,10.68
2022-09-16T03:28:39.295Z,10.64
2022-09-16T03:31:27.422Z,10.61
2022-09-16T03:34:13.337Z,10.59
2022-09-16T03:36:46.047Z,10.61
2022-09-16T03:39:14.502Z,10.62
2022-09-16T03:41:41.543Z,10.61
2022-09-16T03:44:08.201Z,10.58
2022-09-16T03:46:34.874Z,10.55
2022-09-16T03:49:01.728Z,10.55
2022-09-16T03:51:28.347Z,10.54
2022-09-16T03:53:55.277Z,10.50
2022-09-16T03:56:24.248Z,10.46
2022-09-16T03:58:51.724Z,10.48
2022-09-16T04:01:18.517Z,10.45
2022-09-16T04:03:45.189Z,10.42
2022-09-16T04:06:11.781Z,10.38
2022-09-16T04:08:39.816Z,10.37
2022-09-16T04:11:06.966Z,10.33
2022-09-16T04:13:35.271Z,10.33
2022-09-16T04:16:04.225Z,10.31
2022-09-16T04:18:32.237Z,10.29
2022-09-16T04:21:00.255Z,10.28
2022-09-16T04:23:27.797Z,10.23
2022-09-16T04:25:59.830Z,10.25
2022-09-16T04:28:27.644Z,10.21
2022-09-16T04:30:54.615Z,10.18
2022-09-16T04:33:21.321Z,10.16
2022-09-16T04:35:47.995Z,10.12
2022-09-16T04:38:14.660Z,10.10
2022-09-16T04:40:41.386Z,10.08
2022-09-16T04:43:08.062Z,10.06
2022-09-16T04:45:34.677Z,10.05
2022-09-16T04:48:01.336Z,10.04
2022-09-16T04:50:27.936Z,10.03
2022-09-16T04:52:54.600Z,9.99
2022-09-16T04:55:23.254Z,9.96
2022-09-16T04:57:50.463Z,9.93
2022-09-16T05:00:17.216Z,9.93
2022-09-16T05:02:45.639Z,9.93
2022-09-16T05:05:12.602Z,9.89
2022-09-16T05:07:39.297Z,9.90
2022-09-16T05:10:06.621Z,9.88
2022-09-16T05:12:33.300Z,9.87
2022-09-16T05:15:00.023Z,9.86
2022-09-16T05:17:49.755Z,9.83
2022-09-16T05:20:15.857Z,9.84
2022-09-16T05:22:42.565Z,9.83
2022-09-16T05:25:09.518Z,9.83
2022-09-16T05:27:36.246Z,9.82
2022-09-16T05:30:02.945Z,9.80
2022-09-16T05:32:29.511Z,9.77
2022-09-16T05:34:56.354Z,9.78
2022-09-16T05:37:23.085Z,9.75
2022-09-16T05:39:49.771Z,9.72
2022-09-16T05:42:16.513Z,9.69
2022-09-16T05:44:43.181Z,9.68
2022-09-16T05:47:09.793Z,9.70
2022-09-16T05:49:37.201Z,9.70
2022-09-16T05:52:03.840Z,9.68
2022-09-16T05:54:31.562Z,9.69
2022-09-16T05:56:58.190Z,9.68
2022-09-16T05:59:24.964Z,9.66
2022-09-16T06:01:51.727Z,9.64
2022-09-16T06:04:18.484Z,9.62
2022-09-16T06:06:46.863Z,9.61
2022-09-16T06:09:23.679Z,9.58
2022-09-16T06:11:53.178Z,9.58
2022-09-16T06:14:23.168Z,9.58
2022-09-16T06:16:50.635Z,9.60
2022-09-16T06:19:18.481Z,9.61
2022-09-16T06:21:46.323Z,9.61
2022-09-16T06:24:15.424Z,9.64
2022-09-16T06:26:44.056Z,9.64
2022-09-16T06:29:11.908Z,9.61
2022-09-16T06:31:40.582Z,9.61
2022-09-16T06:34:08.869Z,9.62
2022-09-16T06:36:42.754Z,9.65
2022-09-16T06:39:12.564Z,9.68
2022-09-16T06:41:39.155Z,9.70
2022-09-16T06:44:05.801Z,9.71
2022-09-16T06:46:32.399Z,9.74
2022-09-16T06:49:04.324Z,9.74
2022-09-16T06:51:32.654Z,9.74
2022-09-16T06:54:01.595Z,9.75
2022-09-16T06:56:28.315Z,9.78
2022-09-16T06:58:55.934Z,9.80
2022-09-16T07:01:25.761Z,9.82
2022-09-16T07:03:53.071Z,9.85
2022-09-16T07:06:22.064Z,9.87
2022-09-16T07:08:49.224Z,9.90
2022-09-16T07:11:17.135Z,9.91
2022-09-16T07:13:45.069Z,9.96
2022-09-16T07:16:15.079Z,9.99
2022-09-16T07:18:42.709Z,10.01
2022-09-16T07:21:20.821Z,10.05
2022-09-16T07:23:48.866Z,10.06
2022-09-16T07:26:21.578Z,10.09
2022-09-16T07:28:49.747Z,10.15
2022-09-16T07:31:20.283Z,10.20
2022-09-16T07:33:50.390Z,10.24
2022-09-16T07:36:20.260Z,10.27
2022-09-16T07:38:49.094Z,10.29
2022-09-16T07:41:18.990Z,10.31
2022-09-16T07:43:46.784Z,10.35
2022-09-16T07:46:17.113Z,10.38
2022-09-16T07:48:45.272Z,10.42
2022-09-16T07:51:17.095Z,10.47
2022-09-16T07:53:44.681Z,10.49
2022-09-16T07:56:14.195Z,10.54
2022-09-16T07:58:41.736Z,10.60
2022-09-16T08:01:09.397Z,10.63
2022-09-16T08:03:37.603Z,10.65
2022-09-16T08:06:06.931Z,10.69
2022-09-16T08:08:34.364Z,10.76
2022-09-16T08:11:02.184Z,10.80
2022-09-16T08:13:30.920Z,10.86
2022-09-16T08:16:06.917Z,10.91
2022-09-16T08:18:34.884Z,10.94
2022-09-16T08:21:12.665Z,10.99
2022-09-16T08:23:40.450Z,11.06
2022-09-16T08:26:11.092Z,11.13
2022-09-16T08:28:45.501Z,11.18
2022-09-16T08:31:24.581Z,11.26
2022-09-16T08:33:51.288Z,11.37
2022-09-16T08:36:21.145Z,11.47
2022-09-16T08:38:50.113Z,11.59
2022-09-16T08:41:48.504Z,11.74
2022-09-16T08:44:27.135Z,11.91
2022-09-16T08:46:55.609Z,12.11
2022-09-16T08:49:31.314Z,12.29
2022-09-16T08:52:00.786Z,12.49
2022-09-16T08:54:34.781Z,12.76
2022-09-16T08:57:04.891Z,13.11
2022-09-16T08:59:41.196Z,13.66
2022-09-16T09:02:48.461Z,14.64
2022-09-16T09:05:36.537Z,15.93
2022-09-16T09:08:15.593Z,17.29
2022-09-16T09:10:45.195Z,18.45
2022-09-16T09:13:31.093Z,19.31
2022-09-16T09:16:19.903Z,20.26
2022-09-16T09:19:11.217Z,21.01
2022-09-16T09:21:57.064Z,21.43
2022-09-16T09:24:48.330Z,21.63
2022-09-16T09:27:26.466Z,21.66
2022-09-16T09:30:21.417Z,21.72
2022-09-16T09:33:03.383Z,21.96
2022-09-16T09:35:53.183Z,21.93
2022-09-16T09:38:29.117Z,21.89
2022-09-16T09:41:06.243Z,22.20
2022-09-16T09:43:45.581Z,22.34
2022-09-16T09:46:31.909Z,22.51
2022-09-16T09:49:02.608Z,22.61
2022-09-16T09:51:41.071Z,22.73
2022-09-16T09:54:37.703Z,22.95
2022-09-16T09:57:29.088Z,23.14
2022-09-16T10:00:14.582Z,22.87
2022-09-16T10:02:48.936Z,22.03
2022-09-16T10:05:25.001Z,21.62
2022-09-16T10:07:55.841Z,21.51
2022-09-16T10:10:27.440Z,21.43
2022-09-16T10:12:54.443Z,21.28
2022-09-16T10:15:29.062Z,20.55
2022-09-16T10:18:00.168Z,20.51
2022-09-16T10:20:29.405Z,19.82
2022-09-16T10:23:19.287Z,19.22
2022-09-16T10:25:46.132Z,19.78
2022-09-16T10:28:26.705Z,20.43
2022-09-16T10:30:56.081Z,21.06
2022-09-16T10:33:30.511Z,21.41
2022-09-16T10:36:00.860Z,21.78
2022-09-16T10:38:46.751Z,21.83
2022-09-16T10:41:46.010Z,21.44
2022-09-16T10:44:25.273Z,21.46
2022-09-16T10:47:00.669Z,21.39
2022-09-16T10:49:35.499Z,21.40
2022-09-16T10:52:23.306Z,21.19
2022-09-16T10:54:50.489Z,20.96
2022-09-16T10:57:32.122Z,20.51
2022-09-16T11:00:24.613Z,19.87
2022-09-16T11:03:12.761Z,19.22
2022-09-16T11:05:45.395Z,18.74
2022-09-16T11:08:21.260Z,18.47
2022-09-16T11:11:03.335Z,18.32
2022-09-16T11:13:50.494Z,17.95
2022-09-16T11:16:48.631Z,17.48
2022-09-16T11:19:31.410Z,17.02
2022-09-16T11:22:01.122Z,16.81
2022-09-16T11:24:33.458Z,16.79
2022-09-16T11:27:08.799Z,16.62
2022-09-16T11:29:47.225Z,16.42
2022-09-16T11:33:08.412Z,16.27
2022-09-16T11:35:47.551Z,16.18
2022-09-16T11:38:23.180Z,16.12
2022-09-16T11:41:31.509Z,15.97
2022-09-16T11:44:25.597Z,15.94
2022-09-16T11:47:15.936Z,16.06
2022-09-16T11:50:11.872Z,16.18
2022-09-16T11:53:25.489Z,16.12
2022-09-16T11:56:14.977Z,16.04
2022-09-16T11:58:47.579Z,16.01
2022-09-16T12:01:39.897Z,15.98
2022-09-16T12:04:23.564Z,15.96
2022-09-16T12:06:58.425Z,16.02
2022-09-16T12:09:34.416Z,16.17
2022-09-16T12:12:19.790Z,16.42
2022-09-16T12:14:54.601Z,16.47
2022-09-16T12:17:25.699Z,16.33
2022-09-16T12:20:03.771Z,16.20
2022-09-16T12:22:36.430Z,16.11
2022-09-16T12:25:15.149Z,16.19
2022-09-16T12:27:57.877Z,16.33
2022-09-16T12:30:36.084Z,16.21
2022-09-16T12:33:21.057Z,16.19
2022-09-16T12:36:03.289Z,16.38
2022-09-16T12:38:31.046Z,16.71
2022-09-16T12:41:06.664Z,17.00
2022-09-16T12:43:44.974Z,17.06
2022-09-16T12:46:29.953Z,16.79
2022-09-16T12:49:25.644Z,16.79
2022-09-16T12:52:11.910Z,17.08
2022-09-16T12:55:08.805Z,17.40
2022-09-16T12:57:51.620Z,17.64
2022-09-16T13:00:26.087Z,17.85
2022-09-16T13:03:00.569Z,17.78
2022-09-16T13:05:33.400Z,17.48
2022-09-16T13:08:07.867Z,17.17
2022-09-16T13:11:00.699Z,16.93
2022-09-16T13:13:35.500Z,16.79
2022-09-16T13:16:05.332Z,17.02
2022-09-16T13:18:43.070Z,17.20
2022-09-16T13:21:23.936Z,17.17
2022-09-16T13:24:01.897Z,17.03
2022-09-16T13:26:40.034Z,16.86
2022-09-16T13:29:26.507Z,16.82
2022-09-16T13:31:53.565Z,16.96
2022-09-16T13:34:21.867Z,16.96
2022-09-16T13:36:48.619Z,16.81
